sensor_id;sensor_type;location;lat;lon;timestamp;pressure;altitude;pressure_sealevel;temperature;humidity
28701;BME280;15877;52.344;16.790;2022-08-01T00:00:26;100360.70;;;21.34;63.63
28701;BME280;15877;52.344;16.790;2022-08-01T00:03:10;100355.38;;;21.34;64.01
28701;BME280;15877;52.344;16.790;2022-08-01T00:05:42;100355.52;;;21.35;63.85
28701;BME280;15877;52.344;16.790;2022-08-01T00:11:36;100347.65;;;21.36;64.09
28701;BME280;15877;52.344;16.790;2022-08-01T00:14:11;100350.05;;;21.37;64.22
28701;BME280;15877;52.344;16.790;2022-08-01T00:16:43;100340.21;;;21.36;64.37
28701;BME280;15877;52.344;16.790;2022-08-01T00:19:15;100337.19;;;21.35;64.31
28701;BME280;15877;52.344;16.790;2022-08-01T00:21:48;100333.77;;;21.35;64.23
28701;BME280;15877;52.344;16.790;2022-08-01T00:24:22;100329.92;;;21.34;64.21
28701;BME280;15877;52.344;16.790;2022-08-01T00:26:54;100329.25;;;21.32;64.33
28701;BME280;15877;52.344;16.790;2022-08-01T00:29:26;100327.61;;;21.31;63.86
28701;BME280;15877;52.344;16.790;2022-08-01T00:32:19;100325.19;;;21.30;64.19
28701;BME280;15877;52.344;16.790;2022-08-01T00:34:52;100330.06;;;21.28;64.11
28701;BME280;15877;52.344;16.790;2022-08-01T00:37:24;100324.77;;;21.27;63.93
28701;BME280;15877;52.344;16.790;2022-08-01T00:39:56;100330.37;;;21.26;63.98
28701;BME280;15877;52.344;16.790;2022-08-01T00:42:29;100330.36;;;21.26;63.79
28701;BME280;15877;52.344;16.790;2022-08-01T00:45:01;100330.08;;;21.21;63.70
28701;BME280;15877;52.344;16.790;2022-08-01T00:47:34;100332.73;;;21.18;63.99
28701;BME280;15877;52.344;16.790;2022-08-01T00:50:08;100330.43;;;21.16;63.85
28701;BME280;15877;52.344;16.790;2022-08-01T00:52:40;100329.13;;;21.14;63.89
28701;BME280;15877;52.344;16.790;2022-08-01T00:55:21;100325.95;;;21.11;63.99
28701;BME280;15877;52.344;16.790;2022-08-01T00:57:56;100324.01;;;21.08;64.22
28701;BME280;15877;52.344;16.790;2022-08-01T01:00:36;100326.07;;;21.06;64.36
28701;BME280;15877;52.344;16.790;2022-08-01T01:03:25;100320.94;;;21.04;64.59
28701;BME280;15877;52.344;16.790;2022-08-01T01:06:25;100310.04;;;20.94;64.48
28701;BME280;15877;52.344;16.790;2022-08-01T01:09:07;100323.77;;;21.01;64.74
28701;BME280;15877;52.344;16.790;2022-08-01T01:11:59;100322.27;;;20.99;64.84
28701;BME280;15877;52.344;16.790;2022-08-01T01:14:38;100318.89;;;20.99;64.66
28701;BME280;15877;52.344;16.790;2022-08-01T01:17:19;100315.52;;;20.98;64.86
28701;BME280;15877;52.344;16.790;2022-08-01T01:20:20;100317.71;;;20.97;64.93
28701;BME280;15877;52.344;16.790;2022-08-01T01:23:01;100303.46;;;20.87;64.83
28701;BME280;15877;52.344;16.790;2022-08-01T01:25:51;100314.63;;;20.93;64.98
28701;BME280;15877;52.344;16.790;2022-08-01T01:28:33;100315.73;;;20.90;64.93
28701;BME280;15877;52.344;16.790;2022-08-01T01:31:07;100309.15;;;20.89;65.21
28701;BME280;15877;52.344;16.790;2022-08-01T01:33:42;100307.49;;;20.87;65.10
28701;BME280;15877;52.344;16.790;2022-08-01T01:36:18;100304.89;;;20.84;65.15
28701;BME280;15877;52.344;16.790;2022-08-01T01:38:52;100303.38;;;20.81;65.32
28701;BME280;15877;52.344;16.790;2022-08-01T01:41:27;100302.60;;;20.79;65.10
28701;BME280;15877;52.344;16.790;2022-08-01T01:44:02;100303.27;;;20.77;65.15
28701;BME280;15877;52.344;16.790;2022-08-01T01:46:37;100300.17;;;20.75;65.16
28701;BME280;15877;52.344;16.790;2022-08-01T01:49:09;100302.00;;;20.73;65.37
28701;BME280;15877;52.344;16.790;2022-08-01T01:51:43;100296.39;;;20.72;65.25
28701;BME280;15877;52.344;16.790;2022-08-01T01:54:37;100299.48;;;20.70;65.43
28701;BME280;15877;52.344;16.790;2022-08-01T01:57:13;100301.11;;;20.69;65.40
28701;BME280;15877;52.344;16.790;2022-08-01T01:59:47;100296.20;;;20.65;65.96
28701;BME280;15877;52.344;16.790;2022-08-01T02:02:23;100296.48;;;20.67;65.89
28701;BME280;15877;52.344;16.790;2022-08-01T02:04:57;100298.41;;;20.67;65.78
28701;BME280;15877;52.344;16.790;2022-08-01T02:07:30;100293.27;;;20.66;65.96
28701;BME280;15877;52.344;16.790;2022-08-01T02:10:06;100290.70;;;20.66;66.00
28701;BME280;15877;52.344;16.790;2022-08-01T02:12:44;100290.84;;;20.67;66.05
28701;BME280;15877;52.344;16.790;2022-08-01T02:15:19;100291.98;;;20.67;66.25
28701;BME280;15877;52.344;16.790;2022-08-01T02:17:52;100288.35;;;20.66;66.30
28701;BME280;15877;52.344;16.790;2022-08-01T02:20:25;100286.05;;;20.64;66.17
28701;BME280;15877;52.344;16.790;2022-08-01T02:23:04;100292.44;;;20.64;66.58
28701;BME280;15877;52.344;16.790;2022-08-01T02:25:42;100286.20;;;20.64;66.60
28701;BME280;15877;52.344;16.790;2022-08-01T02:28:38;100282.55;;;20.66;66.36
28701;BME280;15877;52.344;16.790;2022-08-01T02:31:13;100280.92;;;20.66;66.69
28701;BME280;15877;52.344;16.790;2022-08-01T02:34:20;100282.71;;;20.65;66.95
28701;BME280;15877;52.344;16.790;2022-08-01T02:36:57;100282.92;;;20.67;67.13
28701;BME280;15877;52.344;16.790;2022-08-01T02:39:31;100279.36;;;20.68;66.89
28701;BME280;15877;52.344;16.790;2022-08-01T02:42:06;100280.73;;;20.68;67.02
28701;BME280;15877;52.344;16.790;2022-08-01T02:44:42;100276.38;;;20.72;66.98
28701;BME280;15877;52.344;16.790;2022-08-01T02:47:17;100276.77;;;20.72;66.97
28701;BME280;15877;52.344;16.790;2022-08-01T02:49:53;100270.29;;;20.73;66.87
28701;BME280;15877;52.344;16.790;2022-08-01T02:52:27;100274.24;;;20.73;67.20
28701;BME280;15877;52.344;16.790;2022-08-01T02:55:01;100272.30;;;20.73;67.11
28701;BME280;15877;52.344;16.790;2022-08-01T02:57:34;100268.98;;;20.74;67.40
28701;BME280;15877;52.344;16.790;2022-08-01T03:00:23;100264.34;;;20.72;67.17
28701;BME280;15877;52.344;16.790;2022-08-01T03:02:57;100263.67;;;20.73;66.95
28701;BME280;15877;52.344;16.790;2022-08-01T03:05:33;100264.95;;;20.74;67.08
28701;BME280;15877;52.344;16.790;2022-08-01T03:08:07;100262.98;;;20.76;66.59
28701;BME280;15877;52.344;16.790;2022-08-01T03:10:45;100260.79;;;20.76;66.73
28701;BME280;15877;52.344;16.790;2022-08-01T03:13:19;100262.84;;;20.75;66.73
28701;BME280;15877;52.344;16.790;2022-08-01T03:15:55;100258.89;;;20.75;66.46
28701;BME280;15877;52.344;16.790;2022-08-01T03:18:28;100257.48;;;20.76;66.65
28701;BME280;15877;52.344;16.790;2022-08-01T03:21:02;100261.76;;;20.76;67.02
28701;BME280;15877;52.344;16.790;2022-08-01T03:23:35;100262.21;;;20.78;67.01
28701;BME280;15877;52.344;16.790;2022-08-01T03:26:09;100253.39;;;20.79;67.11
28701;BME280;15877;52.344;16.790;2022-08-01T03:28:43;100256.36;;;20.80;67.02
28701;BME280;15877;52.344;16.790;2022-08-01T03:31:16;100255.64;;;20.80;67.24
28701;BME280;15877;52.344;16.790;2022-08-01T03:33:50;100256.11;;;20.80;67.02
28701;BME280;15877;52.344;16.790;2022-08-01T03:36:26;100257.70;;;20.81;67.48
28701;BME280;15877;52.344;16.790;2022-08-01T03:39:02;100252.69;;;20.81;67.21
28701;BME280;15877;52.344;16.790;2022-08-01T03:41:39;100253.33;;;20.82;67.18
28701;BME280;15877;52.344;16.790;2022-08-01T03:44:16;100244.11;;;20.82;67.29
28701;BME280;15877;52.344;16.790;2022-08-01T03:46:52;100246.67;;;20.83;67.75
28701;BME280;15877;52.344;16.790;2022-08-01T03:51:55;100242.39;;;20.87;67.56
28701;BME280;15877;52.344;16.790;2022-08-01T03:54:31;100241.38;;;20.82;67.77
28701;BME280;15877;52.344;16.790;2022-08-01T03:57:06;100239.79;;;20.84;67.61
28701;BME280;15877;52.344;16.790;2022-08-01T03:59:59;100242.42;;;20.86;67.40
28701;BME280;15877;52.344;16.790;2022-08-01T04:02:42;100240.04;;;20.84;67.45
28701;BME280;15877;52.344;16.790;2022-08-01T04:05:15;100240.59;;;20.85;67.74
28701;BME280;15877;52.344;16.790;2022-08-01T04:07:48;100241.35;;;20.87;67.70
28701;BME280;15877;52.344;16.790;2022-08-01T04:10:26;100240.71;;;20.86;67.82
28701;BME280;15877;52.344;16.790;2022-08-01T04:12:59;100242.77;;;20.88;67.50
28701;BME280;15877;52.344;16.790;2022-08-01T04:15:31;100243.40;;;20.89;67.75
28701;BME280;15877;52.344;16.790;2022-08-01T04:18:04;100244.07;;;20.88;67.97
28701;BME280;15877;52.344;16.790;2022-08-01T04:20:37;100245.61;;;20.91;67.80
28701;BME280;15877;52.344;16.790;2022-08-01T04:23:10;100239.35;;;20.93;68.22
28701;BME280;15877;52.344;16.790;2022-08-01T04:25:43;100241.67;;;20.94;67.97
28701;BME280;15877;52.344;16.790;2022-08-01T04:28:17;100244.88;;;20.95;67.68
28701;BME280;15877;52.344;16.790;2022-08-01T04:30:54;100246.03;;;20.97;67.27
28701;BME280;15877;52.344;16.790;2022-08-01T04:33:33;100243.21;;;20.98;67.47
28701;BME280;15877;52.344;16.790;2022-08-01T04:36:12;100240.80;;;20.98;67.24
28701;BME280;15877;52.344;16.790;2022-08-01T04:38:48;100232.85;;;21.00;67.72
28701;BME280;15877;52.344;16.790;2022-08-01T04:41:25;100236.34;;;21.02;68.38
28701;BME280;15877;52.344;16.790;2022-08-01T04:43:59;100237.29;;;21.03;67.93
28701;BME280;15877;52.344;16.790;2022-08-01T04:46:34;100241.48;;;21.06;67.30
28701;BME280;15877;52.344;16.790;2022-08-01T04:49:07;100239.23;;;21.05;67.70
28701;BME280;15877;52.344;16.790;2022-08-01T04:51:52;100231.77;;;20.98;68.37
28701;BME280;15877;52.344;16.790;2022-08-01T04:54:29;100240.05;;;21.02;68.24
28701;BME280;15877;52.344;16.790;2022-08-01T04:57:04;100244.61;;;21.10;68.47
28701;BME280;15877;52.344;16.790;2022-08-01T04:59:41;100246.92;;;21.12;68.78
28701;BME280;15877;52.344;16.790;2022-08-01T05:02:16;100250.15;;;21.12;68.61
28701;BME280;15877;52.344;16.790;2022-08-01T05:04:48;100244.36;;;21.14;68.82
28701;BME280;15877;52.344;16.790;2022-08-01T05:07:28;100243.73;;;21.16;68.62
28701;BME280;15877;52.344;16.790;2022-08-01T05:10:15;100241.86;;;21.18;67.84
28701;BME280;15877;52.344;16.790;2022-08-01T05:12:47;100245.19;;;21.20;68.16
28701;BME280;15877;52.344;16.790;2022-08-01T05:15:20;100246.85;;;21.21;67.64
28701;BME280;15877;52.344;16.790;2022-08-01T05:17:55;100253.75;;;21.23;67.92
28701;BME280;15877;52.344;16.790;2022-08-01T05:20:28;100255.89;;;21.24;67.60
28701;BME280;15877;52.344;16.790;2022-08-01T05:23:00;100254.35;;;21.25;68.02
28701;BME280;15877;52.344;16.790;2022-08-01T05:25:33;100255.13;;;21.26;67.60
28701;BME280;15877;52.344;16.790;2022-08-01T05:28:28;100256.23;;;21.27;67.93
28701;BME280;15877;52.344;16.790;2022-08-01T05:31:04;100239.63;;;21.19;67.18
28701;BME280;15877;52.344;16.790;2022-08-01T05:33:37;100253.54;;;21.31;66.66
28701;BME280;15877;52.344;16.790;2022-08-01T05:36:09;100256.36;;;21.32;67.25
28701;BME280;15877;52.344;16.790;2022-08-01T05:38:41;100254.04;;;21.31;67.31
28701;BME280;15877;52.344;16.790;2022-08-01T05:41:14;100260.61;;;21.33;67.00
28701;BME280;15877;52.344;16.790;2022-08-01T05:43:47;100253.85;;;21.32;67.16
28701;BME280;15877;52.344;16.790;2022-08-01T05:46:19;100259.46;;;21.34;67.39
28701;BME280;15877;52.344;16.790;2022-08-01T05:48:56;100253.27;;;21.29;67.29
28701;BME280;15877;52.344;16.790;2022-08-01T05:51:29;100257.15;;;21.36;67.21
28701;BME280;15877;52.344;16.790;2022-08-01T05:54:01;100251.83;;;21.39;67.02
28701;BME280;15877;52.344;16.790;2022-08-01T05:56:34;100250.58;;;21.37;67.26
28701;BME280;15877;52.344;16.790;2022-08-01T05:59:06;100253.13;;;21.35;67.38
28701;BME280;15877;52.344;16.790;2022-08-01T06:01:39;100255.05;;;21.39;67.52
28701;BME280;15877;52.344;16.790;2022-08-01T06:04:14;100253.77;;;21.42;67.51
28701;BME280;15877;52.344;16.790;2022-08-01T06:06:46;100247.02;;;21.37;67.24
28701;BME280;15877;52.344;16.790;2022-08-01T06:09:23;100251.98;;;21.42;67.55
28701;BME280;15877;52.344;16.790;2022-08-01T06:11:56;100253.02;;;21.46;67.71
28701;BME280;15877;52.344;16.790;2022-08-01T06:14:28;100255.23;;;21.48;67.72
28701;BME280;15877;52.344;16.790;2022-08-01T06:17:00;100251.27;;;21.48;68.09
28701;BME280;15877;52.344;16.790;2022-08-01T06:19:33;100250.21;;;21.51;67.97
28701;BME280;15877;52.344;16.790;2022-08-01T06:22:05;100257.56;;;21.54;67.67
28701;BME280;15877;52.344;16.790;2022-08-01T06:24:38;100257.76;;;21.57;67.45
28701;BME280;15877;52.344;16.790;2022-08-01T06:27:11;100253.03;;;21.58;67.37
28701;BME280;15877;52.344;16.790;2022-08-01T06:29:52;100254.16;;;21.58;67.45
28701;BME280;15877;52.344;16.790;2022-08-01T06:32:25;100256.06;;;21.56;67.70
28701;BME280;15877;52.344;16.790;2022-08-01T06:34:58;100263.83;;;21.56;67.81
28701;BME280;15877;52.344;16.790;2022-08-01T06:37:31;100270.46;;;21.55;68.10
28701;BME280;15877;52.344;16.790;2022-08-01T06:40:06;100273.21;;;21.52;68.43
28701;BME280;15877;52.344;16.790;2022-08-01T06:42:46;100271.45;;;21.61;67.79
28701;BME280;15877;52.344;16.790;2022-08-01T06:45:18;100271.65;;;21.59;67.88
28701;BME280;15877;52.344;16.790;2022-08-01T06:47:53;100274.96;;;21.63;67.57
28701;BME280;15877;52.344;16.790;2022-08-01T06:50:25;100273.48;;;21.67;67.64
28701;BME280;15877;52.344;16.790;2022-08-01T06:52:57;100271.34;;;21.68;67.92
28701;BME280;15877;52.344;16.790;2022-08-01T06:55:29;100262.42;;;21.66;68.00
28701;BME280;15877;52.344;16.790;2022-08-01T06:58:01;100266.97;;;21.71;68.16
28701;BME280;15877;52.344;16.790;2022-08-01T07:00:34;100269.94;;;21.76;68.22
28701;BME280;15877;52.344;16.790;2022-08-01T07:03:06;100269.70;;;21.80;67.84
28701;BME280;15877;52.344;16.790;2022-08-01T07:05:39;100273.86;;;21.85;67.59
28701;BME280;15877;52.344;16.790;2022-08-01T07:08:11;100278.41;;;21.84;67.71
28701;BME280;15877;52.344;16.790;2022-08-01T07:10:44;100281.98;;;21.86;67.88
28701;BME280;15877;52.344;16.790;2022-08-01T07:13:16;100274.26;;;21.82;68.38
28701;BME280;15877;52.344;16.790;2022-08-01T07:15:52;100282.23;;;21.86;68.29
28701;BME280;15877;52.344;16.790;2022-08-01T07:18:25;100283.11;;;22.01;66.74
28701;BME280;15877;52.344;16.790;2022-08-01T07:20:57;100286.42;;;22.01;66.64
28701;BME280;15877;52.344;16.790;2022-08-01T07:23:29;100282.06;;;21.95;67.18
28701;BME280;15877;52.344;16.790;2022-08-01T07:26:06;100265.50;;;21.80;67.59
28701;BME280;15877;52.344;16.790;2022-08-01T07:28:38;100282.52;;;21.90;67.52
28701;BME280;15877;52.344;16.790;2022-08-01T07:31:13;100283.00;;;21.93;67.43
28701;BME280;15877;52.344;16.790;2022-08-01T07:34:10;100280.34;;;21.96;67.82
28701;BME280;15877;52.344;16.790;2022-08-01T07:36:43;100281.38;;;21.97;67.94
28701;BME280;15877;52.344;16.790;2022-08-01T07:39:15;100283.84;;;22.04;67.41
28701;BME280;15877;52.344;16.790;2022-08-01T07:41:47;100287.30;;;22.05;67.16
28701;BME280;15877;52.344;16.790;2022-08-01T07:44:40;100290.31;;;22.10;67.44
28701;BME280;15877;52.344;16.790;2022-08-01T07:47:12;100284.35;;;22.09;68.03
28701;BME280;15877;52.344;16.790;2022-08-01T07:49:45;100289.86;;;22.12;67.80
28701;BME280;15877;52.344;16.790;2022-08-01T07:52:17;100292.53;;;22.15;67.69
28701;BME280;15877;52.344;16.790;2022-08-01T07:54:50;100293.92;;;22.17;67.10
28701;BME280;15877;52.344;16.790;2022-08-01T07:57:22;100295.73;;;22.18;66.85
28701;BME280;15877;52.344;16.790;2022-08-01T07:59:55;100292.89;;;22.19;66.88
28701;BME280;15877;52.344;16.790;2022-08-01T08:02:28;100296.83;;;22.23;67.35
28701;BME280;15877;52.344;16.790;2022-08-01T08:05:00;100297.67;;;22.27;67.42
28701;BME280;15877;52.344;16.790;2022-08-01T08:07:32;100299.36;;;22.33;66.63
28701;BME280;15877;52.344;16.790;2022-08-01T08:10:06;100297.88;;;22.37;66.52
28701;BME280;15877;52.344;16.790;2022-08-01T08:12:39;100303.71;;;22.42;66.79
28701;BME280;15877;52.344;16.790;2022-08-01T08:15:12;100305.61;;;22.46;67.24
28701;BME280;15877;52.344;16.790;2022-08-01T08:17:45;100312.23;;;22.53;66.16
28701;BME280;15877;52.344;16.790;2022-08-01T08:20:25;100299.77;;;22.50;66.44
28701;BME280;15877;52.344;16.790;2022-08-01T08:22:58;100311.95;;;22.63;66.53
28701;BME280;15877;52.344;16.790;2022-08-01T08:25:30;100313.36;;;22.73;66.00
28701;BME280;15877;52.344;16.790;2022-08-01T08:28:05;100311.20;;;22.80;65.67
28701;BME280;15877;52.344;16.790;2022-08-01T08:30:37;100305.79;;;22.85;66.02
28701;BME280;15877;52.344;16.790;2022-08-01T08:33:09;100312.69;;;22.96;65.18
28701;BME280;15877;52.344;16.790;2022-08-01T08:35:43;100311.52;;;23.05;64.56
28701;BME280;15877;52.344;16.790;2022-08-01T08:38:23;100308.33;;;23.08;64.78
28701;BME280;15877;52.344;16.790;2022-08-01T08:41:00;100309.21;;;23.14;64.54
28701;BME280;15877;52.344;16.790;2022-08-01T08:43:33;100298.08;;;23.15;63.82
28701;BME280;15877;52.344;16.790;2022-08-01T08:46:09;100294.83;;;23.24;63.73
28701;BME280;15877;52.344;16.790;2022-08-01T08:48:43;100308.17;;;23.42;63.41
28701;BME280;15877;52.344;16.790;2022-08-01T08:51:19;100304.65;;;23.52;63.05
28701;BME280;15877;52.344;16.790;2022-08-01T08:53:52;100306.58;;;23.58;63.00
28701;BME280;15877;52.344;16.790;2022-08-01T08:56:26;100305.23;;;23.62;63.70
28701;BME280;15877;52.344;16.790;2022-08-01T08:59:00;100308.87;;;23.72;63.40
28701;BME280;15877;52.344;16.790;2022-08-01T09:01:34;100307.71;;;23.80;63.53
28701;BME280;15877;52.344;16.790;2022-08-01T09:04:06;100305.38;;;23.86;62.51
28701;BME280;15877;52.344;16.790;2022-08-01T09:06:39;100310.83;;;23.90;62.95
28701;BME280;15877;52.344;16.790;2022-08-01T09:09:12;100311.38;;;23.98;63.00
28701;BME280;15877;52.344;16.790;2022-08-01T09:11:45;100308.35;;;24.06;62.95
28701;BME280;15877;52.344;16.790;2022-08-01T09:14:36;100306.86;;;24.26;63.10
28701;BME280;15877;52.344;16.790;2022-08-01T09:17:15;100308.41;;;24.50;61.79
28701;BME280;15877;52.344;16.790;2022-08-01T09:19:50;100311.81;;;24.66;60.56
28701;BME280;15877;52.344;16.790;2022-08-01T09:22:25;100306.00;;;24.76;60.69
28701;BME280;15877;52.344;16.790;2022-08-01T09:25:03;100306.77;;;24.83;60.56
28701;BME280;15877;52.344;16.790;2022-08-01T09:27:37;100306.06;;;24.97;60.63
28701;BME280;15877;52.344;16.790;2022-08-01T09:30:18;100298.11;;;24.99;61.14
28701;BME280;15877;52.344;16.790;2022-08-01T09:32:57;100305.86;;;25.12;61.00
28701;BME280;15877;52.344;16.790;2022-08-01T09:35:37;100300.77;;;25.30;59.87
28701;BME280;15877;52.344;16.790;2022-08-01T09:38:18;100302.61;;;25.53;60.08
28701;BME280;15877;52.344;16.790;2022-08-01T09:40:53;100302.88;;;25.62;59.52
28701;BME280;15877;52.344;16.790;2022-08-01T09:43:30;100306.64;;;25.77;59.69
28701;BME280;15877;52.344;16.790;2022-08-01T09:46:08;100299.41;;;25.92;59.34
28701;BME280;15877;52.344;16.790;2022-08-01T09:48:56;100299.55;;;26.02;58.08
28701;BME280;15877;52.344;16.790;2022-08-01T09:51:34;100295.09;;;26.19;57.86
28701;BME280;15877;52.344;16.790;2022-08-01T09:54:33;100296.64;;;26.35;57.43
28701;BME280;15877;52.344;16.790;2022-08-01T09:57:14;100294.96;;;26.25;57.84
28701;BME280;15877;52.344;16.790;2022-08-01T09:59:49;100298.16;;;26.43;56.95
28701;BME280;15877;52.344;16.790;2022-08-01T10:02:36;100294.61;;;26.60;57.49
28701;BME280;15877;52.344;16.790;2022-08-01T10:05:10;100292.62;;;26.68;57.38
28701;BME280;15877;52.344;16.790;2022-08-01T10:08:00;100290.55;;;26.83;57.17
28701;BME280;15877;52.344;16.790;2022-08-01T10:10:38;100295.20;;;26.93;56.26
28701;BME280;15877;52.344;16.790;2022-08-01T10:13:16;100292.54;;;26.98;56.43
28701;BME280;15877;52.344;16.790;2022-08-01T10:15:48;100284.91;;;27.04;55.01
28701;BME280;15877;52.344;16.790;2022-08-01T10:18:21;100290.29;;;27.24;54.74
28701;BME280;15877;52.344;16.790;2022-08-01T10:20:54;100296.50;;;27.13;54.95
28701;BME280;15877;52.344;16.790;2022-08-01T10:23:30;100292.48;;;27.06;55.59
28701;BME280;15877;52.344;16.790;2022-08-01T10:26:13;100290.59;;;26.89;55.17
28701;BME280;15877;52.344;16.790;2022-08-01T10:28:47;100288.47;;;26.72;55.33
28701;BME280;15877;52.344;16.790;2022-08-01T10:31:20;100291.53;;;26.56;55.47
28701;BME280;15877;52.344;16.790;2022-08-01T10:34:00;100293.70;;;26.42;56.02
28701;BME280;15877;52.344;16.790;2022-08-01T10:36:34;100290.48;;;26.25;55.36
28701;BME280;15877;52.344;16.790;2022-08-01T10:39:11;100289.73;;;26.14;55.30
28701;BME280;15877;52.344;16.790;2022-08-01T10:41:49;100282.95;;;26.00;56.21
28701;BME280;15877;52.344;16.790;2022-08-01T10:44:26;100284.02;;;26.00;56.55
28701;BME280;15877;52.344;16.790;2022-08-01T10:46:59;100284.00;;;25.91;57.10
28701;BME280;15877;52.344;16.790;2022-08-01T10:49:43;100283.77;;;25.85;57.09
28701;BME280;15877;52.344;16.790;2022-08-01T10:52:17;100279.79;;;25.74;57.32
28701;BME280;15877;52.344;16.790;2022-08-01T10:55:05;100279.27;;;25.67;58.18
28701;BME280;15877;52.344;16.790;2022-08-01T10:57:46;100287.98;;;25.65;58.07
28701;BME280;15877;52.344;16.790;2022-08-01T11:00:22;100289.77;;;25.57;59.98
28701;BME280;15877;52.344;16.790;2022-08-01T11:03:03;100288.03;;;25.48;60.71
28701;BME280;15877;52.344;16.790;2022-08-01T11:05:38;100301.42;;;25.45;60.96
28701;BME280;15877;52.344;16.790;2022-08-01T11:08:24;100303.44;;;25.41;60.85
28701;BME280;15877;52.344;16.790;2022-08-01T11:11:03;100308.98;;;25.32;60.92
28701;BME280;15877;52.344;16.790;2022-08-01T11:14:02;100311.41;;;25.28;62.47
28701;BME280;15877;52.344;16.790;2022-08-01T11:16:41;100303.94;;;25.26;64.50
28701;BME280;15877;52.344;16.790;2022-08-01T11:19:13;100309.88;;;25.26;66.98
28701;BME280;15877;52.344;16.790;2022-08-01T11:22:01;100305.52;;;25.28;67.98
28701;BME280;15877;52.344;16.790;2022-08-01T11:24:55;100305.77;;;25.33;67.88
28701;BME280;15877;52.344;16.790;2022-08-01T11:27:32;100300.84;;;25.39;65.54
28701;BME280;15877;52.344;16.790;2022-08-01T11:30:23;100299.04;;;25.41;65.26
28701;BME280;15877;52.344;16.790;2022-08-01T11:32:57;100302.34;;;25.44;65.93
28701;BME280;15877;52.344;16.790;2022-08-01T11:36:15;100302.52;;;25.43;65.64
28701;BME280;15877;52.344;16.790;2022-08-01T11:38:36;100301.71;;;25.45;64.65
28701;BME280;15877;52.344;16.790;2022-08-01T11:41:13;100292.69;;;25.35;64.47
28701;BME280;15877;52.344;16.790;2022-08-01T11:44:00;100308.64;;;25.41;62.93
28701;BME280;15877;52.344;16.790;2022-08-01T11:46:49;100313.59;;;25.35;64.64
28701;BME280;15877;52.344;16.790;2022-08-01T11:49:43;100327.15;;;25.24;67.06
28701;BME280;15877;52.344;16.790;2022-08-01T11:52:25;100322.46;;;25.15;67.84
28701;BME280;15877;52.344;16.790;2022-08-01T11:55:04;100319.94;;;25.05;71.06
28701;BME280;15877;52.344;16.790;2022-08-01T11:57:41;100320.00;;;25.00;71.07
28701;BME280;15877;52.344;16.790;2022-08-01T12:00:15;100320.89;;;24.98;69.64
28701;BME280;15877;52.344;16.790;2022-08-01T12:02:57;100318.81;;;24.95;70.15
28701;BME280;15877;52.344;16.790;2022-08-01T12:05:35;100321.61;;;24.94;69.82
28701;BME280;15877;52.344;16.790;2022-08-01T12:08:13;100321.58;;;24.84;69.14
28701;BME280;15877;52.344;16.790;2022-08-01T12:10:50;100322.34;;;24.82;69.41
28701;BME280;15877;52.344;16.790;2022-08-01T12:13:41;100318.77;;;24.82;70.69
28701;BME280;15877;52.344;16.790;2022-08-01T12:16:15;100301.59;;;24.74;71.99
28701;BME280;15877;52.344;16.790;2022-08-01T12:18:50;100320.77;;;24.92;73.00
28701;BME280;15877;52.344;16.790;2022-08-01T12:21:22;100319.02;;;25.33;79.05
28701;BME280;15877;52.344;16.790;2022-08-01T12:24:03;100320.67;;;25.30;79.78
28701;BME280;15877;52.344;16.790;2022-08-01T12:26:42;100316.16;;;25.36;75.73
28701;BME280;15877;52.344;16.790;2022-08-01T12:29:37;100325.41;;;25.52;71.08
28701;BME280;15877;52.344;16.790;2022-08-01T12:32:27;100320.79;;;25.58;68.04
28701;BME280;15877;52.344;16.790;2022-08-01T12:35:09;100314.67;;;25.89;66.69
28701;BME280;15877;52.344;16.790;2022-08-01T12:37:49;100313.63;;;26.22;68.24
28701;BME280;15877;52.344;16.790;2022-08-01T12:40:24;100312.63;;;26.50;67.94
28701;BME280;15877;52.344;16.790;2022-08-01T12:42:55;100314.39;;;26.87;66.44
28701;BME280;15877;52.344;16.790;2022-08-01T12:45:30;100313.36;;;26.88;65.90
28701;BME280;15877;52.344;16.790;2022-08-01T12:48:08;100314.81;;;26.66;63.59
28701;BME280;15877;52.344;16.790;2022-08-01T12:50:44;100313.70;;;26.56;64.05
28701;BME280;15877;52.344;16.790;2022-08-01T12:53:16;100307.55;;;26.49;65.66
28701;BME280;15877;52.344;16.790;2022-08-01T12:55:52;100309.46;;;26.47;64.50
28701;BME280;15877;52.344;16.790;2022-08-01T12:58:33;100317.02;;;26.47;64.39
28701;BME280;15877;52.344;16.790;2022-08-01T13:01:07;100313.77;;;26.41;63.95
28701;BME280;15877;52.344;16.790;2022-08-01T13:03:40;100313.42;;;26.48;61.47
28701;BME280;15877;52.344;16.790;2022-08-01T13:06:13;100314.79;;;26.52;60.38
28701;BME280;15877;52.344;16.790;2022-08-01T13:08:47;100322.62;;;26.60;60.56
28701;BME280;15877;52.344;16.790;2022-08-01T13:11:19;100321.46;;;26.59;58.63
28701;BME280;15877;52.344;16.790;2022-08-01T13:13:53;100326.67;;;26.60;58.62
28701;BME280;15877;52.344;16.790;2022-08-01T13:16:27;100324.00;;;26.68;57.98
28701;BME280;15877;52.344;16.790;2022-08-01T13:19:20;100324.17;;;26.65;57.37
28701;BME280;15877;52.344;16.790;2022-08-01T13:21:57;100326.54;;;26.63;57.06
28701;BME280;15877;52.344;16.790;2022-08-01T13:24:30;100320.95;;;26.66;56.87
28701;BME280;15877;52.344;16.790;2022-08-01T13:27:03;100317.60;;;26.72;57.52
28701;BME280;15877;52.344;16.790;2022-08-01T13:29:37;100323.59;;;26.77;57.14
28701;BME280;15877;52.344;16.790;2022-08-01T13:32:17;100322.69;;;26.86;56.99
28701;BME280;15877;52.344;16.790;2022-08-01T13:35:04;100333.35;;;26.89;55.99